createdAt,value
2018-03-31T00:01:28.499Z,7.20
2018-03-31T00:03:56.336Z,7.10
2018-03-31T00:06:24.190Z,7.00
2018-03-31T00:08:51.250Z,7.00
2018-03-31T00:11:18.318Z,6.90
2018-03-31T00:13:45.355Z,6.90
2018-03-31T00:16:12.392Z,6.80
2018-03-31T00:18:39.438Z,6.80
2018-03-31T00:21:06.468Z,6.70
2018-03-31T00:23:33.539Z,6.70
2018-03-31T00:26:00.630Z,6.70
2018-03-31T00:28:27.702Z,6.70
2018-03-31T00:30:55.522Z,6.80
2018-03-31T00:33:22.567Z,6.80
2018-03-31T00:35:49.630Z,6.90
2018-03-31T00:38:16.713Z,6.90
2018-03-31T00:40:43.774Z,6.80
2018-03-31T00:43:10.997Z,6.80
2018-03-31T00:45:38.045Z,6.70
2018-03-31T00:48:05.092Z,6.60
2018-03-31T00:50:32.154Z,6.50
2018-03-31T00:52:59.190Z,6.50
2018-03-31T00:55:26.287Z,6.30
2018-03-31T00:57:53.496Z,6.30
2018-03-31T01:00:20.557Z,6.20
2018-03-31T01:02:47.610Z,6.20
2018-03-31T01:05:14.656Z,6.20
2018-03-31T01:07:41.726Z,6.10
2018-03-31T01:10:08.760Z,6.20
2018-03-31T01:12:35.825Z,6.30
2018-03-31T01:15:02.891Z,6.30
2018-03-31T01:17:29.969Z,6.30
2018-03-31T01:19:57.046Z,6.20
2018-03-31T01:22:24.908Z,6.10
2018-03-31T01:24:51.956Z,6.00
2018-03-31T01:27:19.010Z,5.90
2018-03-31T01:29:46.061Z,5.90
2018-03-31T01:32:13.124Z,5.90
2018-03-31T01:34:40.180Z,5.80
2018-03-31T01:37:07.219Z,5.80
2018-03-31T01:39:34.286Z,5.80
2018-03-31T01:42:01.322Z,5.50
2018-03-31T01:44:28.391Z,5.60
2018-03-31T01:46:55.444Z,5.60
2018-03-31T01:49:22.489Z,5.50
2018-03-31T01:51:49.526Z,5.60
2018-03-31T01:54:16.602Z,5.50
2018-03-31T01:56:43.650Z,5.60
2018-03-31T01:59:10.728Z,5.60
2018-03-31T02:01:37.793Z,5.50
2018-03-31T02:04:04.833Z,5.60
2018-03-31T02:06:31.872Z,5.50
2018-03-31T02:08:58.934Z,5.50
2018-03-31T02:11:25.972Z,5.50
2018-03-31T02:13:53.018Z,5.50
2018-03-31T02:16:20.116Z,5.40
2018-03-31T02:18:47.152Z,5.40
2018-03-31T02:21:14.204Z,5.40
2018-03-31T02:23:41.253Z,5.30
2018-03-31T02:26:08.324Z,5.30
2018-03-31T02:28:35.385Z,5.30
2018-03-31T02:31:02.471Z,5.20
2018-03-31T02:33:29.284Z,5.20
2018-03-31T02:35:56.325Z,5.10
2018-03-31T02:38:23.385Z,5.10
2018-03-31T02:40:50.427Z,5.10
2018-03-31T02:43:18.269Z,5.20
2018-03-31T02:45:45.327Z,5.20
2018-03-31T02:48:12.376Z,5.20
2018-03-31T02:50:39.445Z,5.20
2018-03-31T02:53:06.526Z,5.20
2018-03-31T02:55:33.598Z,5.10
2018-03-31T02:58:00.628Z,5.10
2018-03-31T03:00:27.692Z,5.10
2018-03-31T03:02:54.758Z,5.10
2018-03-31T03:05:21.569Z,5.00
2018-03-31T03:07:49.396Z,5.00
2018-03-31T03:10:16.488Z,5.00
2018-03-31T03:12:43.535Z,4.90
2018-03-31T03:15:10.590Z,4.90
2018-03-31T03:17:37.644Z,4.90
2018-03-31T03:20:05.509Z,4.90
2018-03-31T03:22:32.596Z,4.90
2018-03-31T03:24:59.631Z,4.90
2018-03-31T03:27:26.696Z,5.00
2018-03-31T03:29:53.734Z,4.90
2018-03-31T03:32:20.788Z,4.90
2018-03-31T03:34:47.864Z,4.90
2018-03-31T03:37:14.904Z,4.90
2018-03-31T03:39:41.966Z,4.90
2018-03-31T03:42:09.016Z,4.80
2018-03-31T03:44:36.080Z,4.80
2018-03-31T03:47:03.124Z,4.70
2018-03-31T03:49:30.175Z,4.70
2018-03-31T03:51:57.247Z,4.70
2018-03-31T03:54:24.290Z,4.60
2018-03-31T03:56:51.351Z,4.60
2018-03-31T03:59:18.419Z,4.60
2018-03-31T04:01:45.482Z,4.60
2018-03-31T04:04:12.529Z,4.50
2018-03-31T04:06:39.564Z,4.40
2018-03-31T04:09:06.620Z,4.50
2018-03-31T04:11:33.671Z,4.60
2018-03-31T04:14:00.754Z,4.50
2018-03-31T04:16:27.795Z,4.40
2018-03-31T04:18:54.837Z,4.40
2018-03-31T04:21:21.880Z,4.40
2018-03-31T04:23:48.933Z,4.40
2018-03-31T04:26:15.966Z,4.40
2018-03-31T04:28:43.036Z,4.40
2018-03-31T04:31:10.080Z,4.30
2018-03-31T04:33:37.162Z,4.30
2018-03-31T04:36:04.227Z,4.30
2018-03-31T04:38:31.265Z,4.30
2018-03-31T04:40:58.352Z,4.20
2018-03-31T04:43:25.388Z,4.30
2018-03-31T04:45:53.202Z,4.20
2018-03-31T04:48:21.047Z,4.20
2018-03-31T04:50:47.872Z,4.20
2018-03-31T04:53:14.699Z,4.20
2018-03-31T04:55:41.736Z,4.20
2018-03-31T04:58:08.872Z,4.30
2018-03-31T05:00:36.054Z,4.10
2018-03-31T05:03:02.876Z,4.10
2018-03-31T05:05:30.485Z,4.10
2018-03-31T05:07:57.555Z,4.10
2018-03-31T05:10:24.605Z,4.00
2018-03-31T05:12:51.624Z,4.10
2018-03-31T05:15:18.703Z,4.00
2018-03-31T05:17:45.768Z,4.00
2018-03-31T05:20:12.797Z,4.00
2018-03-31T05:22:39.845Z,3.90
2018-03-31T05:25:06.924Z,3.90
2018-03-31T05:27:33.733Z,4.00
2018-03-31T05:30:00.792Z,4.00
2018-03-31T05:32:27.858Z,3.90
2018-03-31T05:34:54.931Z,4.00
2018-03-31T05:37:21.995Z,4.10
2018-03-31T05:39:49.040Z,4.00
2018-03-31T05:42:16.089Z,4.00
2018-03-31T05:44:42.933Z,4.00
2018-03-31T05:47:10.018Z,4.00
2018-03-31T05:49:37.068Z,4.00
2018-03-31T05:52:04.132Z,4.10
2018-03-31T05:54:31.205Z,4.10
2018-03-31T05:56:58.290Z,4.20
2018-03-31T05:59:25.340Z,4.20
2018-03-31T06:01:52.381Z,4.20
2018-03-31T06:04:19.465Z,4.30
2018-03-31T06:06:46.536Z,4.30
2018-03-31T06:09:13.599Z,4.30
2018-03-31T06:11:41.440Z,4.30
2018-03-31T06:14:08.488Z,4.20
2018-03-31T06:16:35.600Z,4.20
2018-03-31T06:19:02.645Z,4.20
2018-03-31T06:21:29.712Z,4.20
2018-03-31T06:23:56.784Z,4.30
2018-03-31T06:26:23.876Z,4.30
2018-03-31T06:28:50.915Z,4.40
2018-03-31T06:31:17.983Z,4.50
2018-03-31T06:33:45.051Z,4.60
2018-03-31T06:36:12.892Z,5.00
2018-03-31T06:38:39.980Z,5.00
2018-03-31T06:41:07.039Z,5.10
2018-03-31T06:43:34.162Z,5.10
2018-03-31T06:46:01.207Z,5.20
2018-03-31T06:48:28.256Z,5.10
2018-03-31T06:50:55.327Z,5.10
2018-03-31T06:53:22.173Z,5.00
2018-03-31T06:55:49.247Z,5.10
2018-03-31T06:58:16.317Z,5.10
2018-03-31T07:00:43.392Z,5.20
2018-03-31T07:03:10.201Z,5.40
2018-03-31T07:05:37.256Z,5.40
2018-03-31T07:08:04.312Z,5.50
2018-03-31T07:10:31.377Z,5.60
2018-03-31T07:12:58.446Z,5.60
2018-03-31T07:15:25.569Z,5.70
2018-03-31T07:17:52.812Z,5.80
2018-03-31T07:20:20.679Z,5.90
2018-03-31T07:22:47.750Z,5.90
2018-03-31T07:25:14.799Z,5.90
2018-03-31T07:27:41.913Z,5.90
2018-03-31T07:30:08.977Z,6.00
2018-03-31T07:32:36.063Z,6.00
2018-03-31T07:35:03.126Z,6.00
2018-03-31T07:37:30.175Z,6.00
2018-03-31T07:39:57.221Z,6.10
2018-03-31T07:42:24.312Z,6.10
2018-03-31T07:44:51.366Z,6.20
2018-03-31T07:47:18.787Z,6.30
2018-03-31T07:49:45.877Z,6.30
2018-03-31T07:52:12.937Z,6.40
2018-03-31T07:54:40.039Z,6.40
2018-03-31T07:57:07.146Z,6.50
2018-03-31T07:59:34.229Z,6.60
2018-03-31T08:02:01.315Z,6.60
2018-03-31T08:04:28.387Z,6.70
2018-03-31T08:06:55.442Z,6.70
2018-03-31T08:09:22.520Z,6.70
2018-03-31T08:11:49.612Z,6.80
2018-03-31T08:14:17.437Z,7.00
2018-03-31T08:16:44.614Z,7.00
2018-03-31T08:19:11.857Z,7.00
2018-03-31T08:21:38.950Z,7.10
2018-03-31T08:24:06.781Z,7.20
2018-03-31T08:26:33.831Z,7.10
2018-03-31T08:29:00.896Z,7.30
2018-03-31T08:31:28.019Z,7.30
2018-03-31T08:33:55.871Z,7.30
2018-03-31T08:36:22.933Z,7.20
2018-03-31T08:38:50.778Z,7.40
2018-03-31T08:41:17.948Z,7.40
2018-03-31T08:43:44.785Z,7.50
2018-03-31T08:46:11.848Z,7.70
2018-03-31T08:48:38.933Z,7.80
2018-03-31T08:51:06.001Z,7.90
2018-03-31T08:53:33.110Z,7.90
2018-03-31T08:56:00.162Z,7.90
2018-03-31T08:58:27.236Z,8.00
2018-03-31T09:00:54.453Z,8.20
2018-03-31T09:03:21.496Z,8.20
2018-03-31T09:05:48.580Z,8.20
2018-03-31T09:08:15.632Z,8.20
2018-03-31T09:10:42.731Z,8.20
2018-03-31T09:13:10.057Z,8.30
2018-03-31T09:15:37.102Z,8.20
2018-03-31T09:18:04.198Z,8.30
2018-03-31T09:20:31.240Z,8.30
2018-03-31T09:22:58.346Z,8.30
2018-03-31T09:25:25.401Z,8.40
2018-03-31T09:27:52.463Z,8.20
2018-03-31T09:30:19.731Z,8.60
2018-03-31T09:32:46.798Z,8.50
2018-03-31T09:35:13.935Z,8.50
2018-03-31T09:37:41.050Z,8.60
2018-03-31T09:40:08.313Z,8.60
2018-03-31T09:42:35.390Z,8.60
2018-03-31T09:45:02.509Z,8.60
2018-03-31T09:47:29.617Z,8.70
2018-03-31T09:49:56.691Z,8.60
2018-03-31T09:52:24.541Z,8.70
2018-03-31T09:54:51.620Z,8.70
2018-03-31T09:57:18.722Z,8.80
2018-03-31T09:59:45.788Z,8.80
2018-03-31T10:02:12.887Z,9.00
2018-03-31T10:04:40.194Z,9.20
2018-03-31T10:07:07.272Z,9.30
2018-03-31T10:09:34.344Z,9.40
2018-03-31T10:12:02.182Z,9.80
2018-03-31T10:14:29.300Z,9.80
2018-03-31T10:16:56.394Z,9.90
2018-03-31T10:19:23.486Z,10.10
2018-03-31T10:21:50.577Z,10.10
2018-03-31T10:24:17.693Z,10.20
2018-03-31T10:26:44.764Z,10.30
2018-03-31T10:29:11.853Z,10.40
2018-03-31T10:31:38.927Z,10.80
2018-03-31T10:34:06.061Z,11.00
2018-03-31T10:36:33.140Z,11.10
2018-03-31T10:39:01.306Z,11.10
2018-03-31T10:41:28.384Z,11.10
2018-03-31T10:43:55.445Z,10.90
2018-03-31T10:46:22.522Z,11.00
2018-03-31T10:48:49.815Z,11.10
2018-03-31T10:51:16.984Z,11.20
2018-03-31T10:53:44.036Z,11.20
2018-03-31T10:56:11.113Z,11.40
2018-03-31T10:58:38.921Z,11.70
2018-03-31T11:01:06.096Z,11.70
2018-03-31T11:03:33.184Z,11.90
2018-03-31T11:06:01.056Z,11.90
2018-03-31T11:08:28.877Z,12.00
2018-03-31T11:10:55.976Z,12.00
2018-03-31T11:13:23.042Z,12.30
2018-03-31T11:15:50.283Z,12.40
2018-03-31T11:18:17.342Z,11.50
2018-03-31T11:20:44.408Z,11.60
2018-03-31T11:23:12.243Z,11.90
2018-03-31T11:25:39.299Z,11.90
2018-03-31T11:28:06.473Z,11.80
2018-03-31T11:30:33.541Z,11.90
2018-03-31T11:33:01.366Z,12.00
2018-03-31T11:35:29.199Z,12.00
2018-03-31T11:37:56.281Z,12.00
2018-03-31T11:40:23.343Z,12.30
2018-03-31T11:42:50.394Z,12.40
2018-03-31T11:45:18.456Z,12.30
2018-03-31T11:47:45.554Z,12.30
2018-03-31T11:50:12.624Z,12.20
2018-03-31T11:52:39.691Z,12.10
2018-03-31T11:55:06.737Z,11.90
2018-03-31T11:57:33.770Z,11.80
2018-03-31T12:00:00.853Z,11.50
2018-03-31T12:02:27.937Z,11.50
2018-03-31T12:04:54.993Z,11.30
2018-03-31T12:07:22.065Z,11.20
2018-03-31T12:09:49.144Z,11.10
2018-03-31T12:12:16.829Z,11.20
2018-03-31T12:14:44.431Z,11.10
2018-03-31T12:17:11.502Z,11.10
2018-03-31T12:19:38.576Z,11.00
2018-03-31T12:22:05.645Z,11.00
2018-03-31T12:24:32.919Z,11.00
2018-03-31T12:26:59.982Z,10.90
2018-03-31T12:29:27.040Z,10.90
2018-03-31T12:31:54.106Z,11.10
2018-03-31T12:34:21.150Z,11.30
2018-03-31T12:36:57.747Z,11.60
2018-03-31T12:39:24.793Z,11.70
2018-03-31T12:41:52.106Z,12.00
2018-03-31T12:44:19.168Z,12.00
2018-03-31T12:46:46.245Z,12.00
2018-03-31T12:49:13.317Z,11.80
2018-03-31T12:51:40.442Z,11.80
2018-03-31T12:54:07.684Z,11.90
2018-03-31T12:56:34.772Z,11.90
2018-03-31T12:59:01.925Z,12.00
2018-03-31T13:01:29.017Z,12.00
2018-03-31T13:03:56.129Z,11.80
2018-03-31T13:06:23.182Z,11.80
2018-03-31T13:08:50.509Z,12.00
2018-03-31T13:11:17.618Z,12.20
2018-03-31T13:13:44.455Z,12.20
2018-03-31T13:16:11.540Z,12.30
2018-03-31T13:18:38.416Z,12.40
2018-03-31T13:21:05.258Z,12.40
2018-03-31T13:23:32.108Z,12.30
2018-03-31T13:25:59.939Z,12.50
2018-03-31T13:28:27.778Z,12.40
2018-03-31T13:30:54.847Z,12.40
2018-03-31T13:33:21.901Z,12.40
2018-03-31T13:35:49.136Z,12.60
2018-03-31T13:38:16.217Z,12.70
2018-03-31T13:40:43.301Z,12.70
2018-03-31T13:43:10.364Z,12.60
2018-03-31T13:45:37.219Z,12.50
2018-03-31T13:48:05.051Z,12.30
2018-03-31T13:50:32.096Z,12.40
2018-03-31T13:52:59.162Z,12.30
2018-03-31T13:55:26.215Z,12.20
2018-03-31T13:57:53.305Z,12.20
2018-03-31T14:00:21.144Z,12.40
2018-03-31T14:02:48.213Z,12.40
2018-03-31T14:05:15.271Z,12.50
2018-03-31T14:07:42.382Z,12.50
2018-03-31T14:10:09.450Z,12.70
2018-03-31T14:12:36.711Z,12.90
2018-03-31T14:15:03.784Z,12.70
2018-03-31T14:17:30.883Z,12.90
2018-03-31T14:19:58.004Z,12.80
2018-03-31T14:22:25.912Z,12.80
2018-03-31T14:24:53.025Z,12.80
2018-03-31T14:27:20.101Z,12.70
2018-03-31T14:29:47.249Z,12.70
2018-03-31T14:32:15.399Z,12.80
2018-03-31T14:34:42.504Z,12.70
2018-03-31T14:37:09.663Z,12.60
2018-03-31T14:39:36.700Z,12.30
2018-03-31T14:42:03.801Z,12.10
2018-03-31T14:44:31.034Z,11.90
2018-03-31T14:46:58.103Z,12.00
2018-03-31T14:49:25.186Z,11.90
2018-03-31T14:51:52.217Z,11.80
2018-03-31T14:54:19.294Z,11.70
2018-03-31T14:56:46.363Z,11.40
2018-03-31T14:59:13.423Z,11.20
2018-03-31T15:01:41.345Z,10.90
2018-03-31T15:04:08.484Z,10.60
2018-03-31T15:06:35.564Z,10.30
2018-03-31T15:09:02.648Z,10.20
2018-03-31T15:11:29.777Z,10.00
2018-03-31T15:13:56.956Z,9.80
2018-03-31T15:16:24.103Z,9.70
2018-03-31T15:18:51.203Z,9.60
2018-03-31T15:21:18.328Z,9.70
2018-03-31T15:23:45.435Z,9.70
2018-03-31T15:26:12.580Z,9.60
2018-03-31T15:28:39.731Z,9.80
2018-03-31T15:31:06.909Z,9.70
2018-03-31T15:33:35.258Z,9.80
2018-03-31T15:36:02.328Z,9.90
2018-03-31T15:38:29.403Z,10.10
2018-03-31T15:40:56.499Z,10.00
2018-03-31T15:43:23.570Z,10.20
2018-03-31T15:45:50.630Z,10.30
2018-03-31T15:48:17.723Z,10.30
2018-03-31T15:50:44.950Z,10.20
2018-03-31T15:53:12.031Z,10.30
2018-03-31T15:55:39.157Z,10.00
2018-03-31T15:58:06.218Z,9.70
2018-03-31T16:00:33.310Z,9.70
2018-03-31T16:03:00.358Z,9.70
2018-03-31T16:05:27.450Z,9.70
2018-03-31T16:07:55.281Z,9.60
2018-03-31T16:10:22.336Z,9.50
2018-03-31T16:12:49.438Z,9.50
2018-03-31T16:15:16.475Z,9.50
2018-03-31T16:17:43.565Z,9.60
2018-03-31T16:20:10.765Z,9.70
2018-03-31T16:22:37.840Z,9.70
2018-03-31T16:25:04.894Z,9.70
2018-03-31T16:27:31.972Z,9.40
2018-03-31T16:29:59.023Z,9.10
2018-03-31T16:32:26.126Z,9.00
2018-03-31T16:34:53.223Z,9.00
2018-03-31T16:37:20.330Z,9.00
2018-03-31T16:39:47.428Z,8.90
2018-03-31T16:42:15.291Z,8.90
2018-03-31T16:44:42.435Z,8.90
2018-03-31T16:47:10.282Z,8.80
2018-03-31T16:49:37.373Z,8.80
2018-03-31T16:52:04.428Z,8.80
2018-03-31T16:54:31.505Z,8.70
2018-03-31T16:56:58.756Z,8.70
2018-03-31T16:59:25.852Z,8.70
2018-03-31T17:01:52.931Z,8.70
2018-03-31T17:04:20.019Z,8.70
2018-03-31T17:06:47.104Z,8.70
2018-03-31T17:09:14.172Z,8.70
2018-03-31T17:11:41.250Z,8.70
2018-03-31T17:14:09.124Z,8.70
2018-03-31T17:16:35.944Z,8.70
2018-03-31T17:19:03.050Z,8.70
2018-03-31T17:21:30.118Z,8.70
2018-03-31T17:23:57.199Z,8.60
2018-03-31T17:26:24.297Z,8.60
2018-03-31T17:28:51.417Z,8.60
2018-03-31T17:31:18.533Z,8.60
2018-03-31T17:33:45.614Z,8.60
2018-03-31T17:36:12.669Z,8.50
2018-03-31T17:38:39.742Z,8.50
2018-03-31T17:41:06.828Z,8.50
2018-03-31T17:43:34.017Z,8.50
2018-03-31T17:46:01.120Z,8.50
2018-03-31T17:48:32.004Z,8.50
2018-03-31T17:50:59.141Z,8.40
2018-03-31T17:53:26.226Z,8.50
2018-03-31T17:55:53.353Z,8.50
2018-03-31T17:58:20.483Z,8.50
2018-03-31T18:00:48.327Z,8.30
2018-03-31T18:03:15.449Z,8.30
2018-03-31T18:05:42.643Z,8.30
2018-03-31T18:08:10.482Z,8.30
2018-03-31T18:10:37.554Z,8.30
2018-03-31T18:13:04.626Z,8.30
2018-03-31T18:15:31.690Z,8.30
2018-03-31T18:17:59.536Z,8.30
2018-03-31T18:20:28.325Z,8.30
2018-03-31T18:22:55.394Z,8.30
2018-03-31T18:25:22.455Z,8.30
2018-03-31T18:27:49.553Z,8.30
2018-03-31T18:30:16.644Z,8.30
2018-03-31T18:32:43.491Z,8.30
2018-03-31T18:35:10.572Z,8.30
2018-03-31T18:37:38.404Z,7.80
2018-03-31T18:40:05.481Z,7.80
2018-03-31T18:42:32.565Z,7.70
2018-03-31T18:44:59.629Z,7.60
2018-03-31T18:47:26.689Z,7.60
2018-03-31T18:49:53.759Z,7.60
2018-03-31T18:52:20.989Z,7.60
2018-03-31T18:54:48.081Z,7.60
2018-03-31T18:57:15.180Z,7.60
2018-03-31T18:59:42.261Z,7.70
2018-03-31T19:02:09.347Z,7.70
2018-03-31T19:04:36.457Z,7.70
2018-03-31T19:07:03.520Z,7.70
2018-03-31T19:09:30.626Z,7.70
2018-03-31T19:11:57.730Z,7.70
2018-03-31T19:14:24.864Z,7.70
2018-03-31T19:16:57.402Z,7.60
2018-03-31T19:19:25.321Z,7.50
2018-03-31T19:21:54.198Z,7.50
2018-03-31T19:24:21.345Z,7.50
2018-03-31T19:26:48.461Z,7.50
2018-03-31T19:29:15.541Z,7.50
2018-03-31T19:31:42.659Z,7.50
2018-03-31T19:34:09.965Z,7.40
2018-03-31T19:36:37.243Z,7.50
2018-03-31T19:39:04.106Z,7.50
2018-03-31T19:41:31.293Z,7.50
2018-03-31T19:43:58.465Z,7.40
2018-03-31T19:46:25.702Z,7.40
2018-03-31T19:48:52.831Z,7.40
2018-03-31T19:51:19.902Z,7.40
2018-03-31T19:53:47.030Z,7.40
2018-03-31T19:56:14.301Z,7.30
2018-03-31T19:58:41.505Z,7.30
2018-03-31T20:01:08.616Z,7.30
2018-03-31T20:03:35.683Z,7.30
2018-03-31T20:06:02.860Z,7.30
2018-03-31T20:08:29.945Z,7.30
2018-03-31T20:10:57.042Z,7.30
2018-03-31T20:13:24.159Z,7.30
2018-03-31T20:15:51.376Z,7.30
2018-03-31T20:18:18.472Z,7.30
2018-03-31T20:20:46.322Z,7.20
2018-03-31T20:23:13.416Z,7.20
2018-03-31T20:25:40.495Z,7.20
2018-03-31T20:28:07.587Z,7.20
2018-03-31T20:30:34.658Z,7.20
2018-03-31T20:33:01.777Z,7.20
2018-03-31T20:35:28.843Z,7.20
2018-03-31T20:37:55.929Z,7.10
2018-03-31T20:40:23.764Z,7.10
2018-03-31T20:42:50.850Z,7.10
2018-03-31T20:45:18.104Z,7.10
2018-03-31T20:47:45.970Z,7.00
2018-03-31T20:50:13.043Z,7.00
2018-03-31T20:52:40.126Z,6.90
2018-03-31T20:55:07.160Z,7.00
2018-03-31T20:57:34.247Z,6.90
2018-03-31T21:00:01.314Z,6.90
2018-03-31T21:02:28.380Z,6.90
2018-03-31T21:04:55.484Z,6.90
2018-03-31T21:07:22.763Z,6.90
2018-03-31T21:09:49.827Z,6.90
2018-03-31T21:12:17.698Z,6.90
2018-03-31T21:14:44.797Z,6.90
2018-03-31T21:17:11.851Z,6.90
2018-03-31T21:19:38.918Z,6.90
2018-03-31T21:22:05.998Z,6.90
2018-03-31T21:24:33.044Z,6.90
2018-03-31T21:27:00.138Z,6.80
2018-03-31T21:29:27.229Z,6.80
2018-03-31T21:31:54.301Z,6.80
2018-03-31T21:34:21.363Z,6.90
2018-03-31T21:36:48.452Z,6.90
2018-03-31T21:39:15.505Z,6.90
2018-03-31T21:41:42.578Z,6.80
2018-03-31T21:44:10.393Z,6.90
2018-03-31T21:46:37.650Z,6.90
2018-03-31T21:49:04.712Z,6.90
2018-03-31T21:51:31.782Z,6.80
2018-03-31T21:53:58.890Z,6.80
2018-03-31T21:56:25.949Z,6.80
2018-03-31T21:58:53.821Z,6.80
2018-03-31T22:01:20.876Z,6.80
2018-03-31T22:03:48.005Z,6.80
2018-03-31T22:06:15.109Z,6.80
2018-03-31T22:08:42.195Z,6.70
2018-03-31T22:11:09.270Z,6.80
2018-03-31T22:13:41.837Z,6.70
2018-03-31T22:16:08.898Z,6.70
2018-03-31T22:18:35.979Z,6.70
2018-03-31T22:21:03.237Z,6.70
2018-03-31T22:23:31.090Z,6.50
2018-03-31T22:25:58.163Z,6.50
2018-03-31T22:28:25.219Z,6.60
2018-03-31T22:30:52.301Z,6.50
2018-03-31T22:33:20.177Z,6.50
2018-03-31T22:35:47.436Z,6.50
2018-03-31T22:38:14.528Z,6.50
2018-03-31T22:40:41.601Z,6.50
2018-03-31T22:43:08.687Z,6.30
2018-03-31T22:45:35.791Z,6.40
2018-03-31T22:48:03.705Z,6.40
2018-03-31T22:50:30.790Z,6.30
2018-03-31T22:52:57.844Z,6.30
2018-03-31T22:55:24.899Z,6.30
2018-03-31T22:57:51.985Z,6.20
2018-03-31T23:00:19.090Z,6.10
2018-03-31T23:02:46.176Z,6.00
2018-03-31T23:05:13.226Z,6.10
2018-03-31T23:07:40.281Z,6.10
2018-03-31T23:10:08.138Z,5.90
2018-03-31T23:12:35.197Z,5.90
2018-03-31T23:15:03.049Z,5.70
2018-03-31T23:17:30.124Z,5.70
2018-03-31T23:19:57.192Z,5.70
2018-03-31T23:22:24.272Z,5.70
2018-03-31T23:24:51.340Z,5.60
2018-03-31T23:27:18.452Z,5.70
2018-03-31T23:29:46.276Z,5.60
2018-03-31T23:32:13.344Z,5.60
2018-03-31T23:34:40.450Z,5.50
2018-03-31T23:37:07.527Z,5.50
2018-03-31T23:39:34.604Z,5.40
2018-03-31T23:42:02.487Z,5.20
2018-03-31T23:44:29.592Z,5.10
2018-03-31T23:46:56.680Z,5.10
2018-03-31T23:49:23.757Z,5.20
2018-03-31T23:51:50.825Z,5.10
2018-03-31T23:54:18.694Z,5.10
2018-03-31T23:56:45.739Z,5.00
2018-03-31T23:59:12.802Z,4.90
